sensor_id;sensor_type;location;lat;lon;timestamp;P1;durP1;ratioP1;P2;durP2;ratioP2
57047;SDS011;42934;54.294;18.598;2023-03-01T00:02:01;41.15;;;15.55;;
57047;SDS011;42934;54.294;18.598;2023-03-01T00:04:31;41.50;;;13.55;;
57047;SDS011;42934;54.294;18.598;2023-03-01T00:07:02;23.63;;;9.32;;
57047;SDS011;42934;54.294;18.598;2023-03-01T00:09:31;40.03;;;13.67;;
57047;SDS011;42934;54.294;18.598;2023-03-01T00:12:00;51.03;;;16.77;;
57047;SDS011;42934;54.294;18.598;2023-03-01T00:14:32;27.20;;;9.77;;
57047;SDS011;42934;54.294;18.598;2023-03-01T00:17:01;28.25;;;9.88;;
57047;SDS011;42934;54.294;18.598;2023-03-01T00:19:31;48.50;;;14.73;;
57047;SDS011;42934;54.294;18.598;2023-03-01T00:22:00;35.05;;;11.82;;
57047;SDS011;42934;54.294;18.598;2023-03-01T00:24:29;116.35;;;32.65;;
57047;SDS011;42934;54.294;18.598;2023-03-01T00:26:59;17.25;;;6.55;;
57047;SDS011;42934;54.294;18.598;2023-03-01T00:29:28;48.75;;;15.32;;
57047;SDS011;42934;54.294;18.598;2023-03-01T00:31:59;46.35;;;13.95;;
57047;SDS011;42934;54.294;18.598;2023-03-01T00:34:28;43.90;;;13.10;;
57047;SDS011;42934;54.294;18.598;2023-03-01T00:36:58;19.48;;;6.80;;
57047;SDS011;42934;54.294;18.598;2023-03-01T00:39:32;60.35;;;17.27;;
57047;SDS011;42934;54.294;18.598;2023-03-01T00:42:01;44.30;;;12.90;;
57047;SDS011;42934;54.294;18.598;2023-03-01T00:44:31;44.80;;;15.27;;
57047;SDS011;42934;54.294;18.598;2023-03-01T00:47:02;58.08;;;17.38;;
57047;SDS011;42934;54.294;18.598;2023-03-01T00:49:32;37.15;;;13.02;;
57047;SDS011;42934;54.294;18.598;2023-03-01T00:52:01;28.25;;;10.25;;
57047;SDS011;42934;54.294;18.598;2023-03-01T00:54:30;49.37;;;16.30;;
57047;SDS011;42934;54.294;18.598;2023-03-01T00:56:59;20.53;;;7.93;;
57047;SDS011;42934;54.294;18.598;2023-03-01T00:59:29;36.47;;;12.00;;
57047;SDS011;42934;54.294;18.598;2023-03-01T01:01:58;44.00;;;14.70;;
57047;SDS011;42934;54.294;18.598;2023-03-01T01:04:29;50.20;;;16.20;;
57047;SDS011;42934;54.294;18.598;2023-03-01T01:06:58;24.73;;;9.88;;
57047;SDS011;42934;54.294;18.598;2023-03-01T01:09:28;25.87;;;8.70;;
57047;SDS011;42934;54.294;18.598;2023-03-01T01:14:27;29.23;;;9.60;;
57047;SDS011;42934;54.294;18.598;2023-03-01T01:16:57;28.25;;;9.55;;
57047;SDS011;42934;54.294;18.598;2023-03-01T01:19:26;12.18;;;6.10;;
57047;SDS011;42934;54.294;18.598;2023-03-01T01:21:57;40.22;;;14.23;;
57047;SDS011;42934;54.294;18.598;2023-03-01T01:24:27;20.75;;;7.43;;
57047;SDS011;42934;54.294;18.598;2023-03-01T01:26:56;26.02;;;8.88;;
57047;SDS011;42934;54.294;18.598;2023-03-01T01:29:26;18.92;;;7.72;;
57047;SDS011;42934;54.294;18.598;2023-03-01T01:31:55;29.75;;;10.80;;
57047;SDS011;42934;54.294;18.598;2023-03-01T01:34:24;37.35;;;13.13;;
57047;SDS011;42934;54.294;18.598;2023-03-01T01:36:54;23.08;;;8.82;;
57047;SDS011;42934;54.294;18.598;2023-03-01T01:39:24;15.43;;;6.73;;
57047;SDS011;42934;54.294;18.598;2023-03-01T01:41:54;30.48;;;11.05;;
57047;SDS011;42934;54.294;18.598;2023-03-01T01:44:24;19.33;;;8.60;;
57047;SDS011;42934;54.294;18.598;2023-03-01T01:46:55;18.30;;;7.88;;
57047;SDS011;42934;54.294;18.598;2023-03-01T01:49:31;19.88;;;8.48;;
57047;SDS011;42934;54.294;18.598;2023-03-01T01:52:05;23.45;;;9.48;;
57047;SDS011;42934;54.294;18.598;2023-03-01T01:54:40;35.75;;;12.98;;
57047;SDS011;42934;54.294;18.598;2023-03-01T01:57:14;19.80;;;8.10;;
57047;SDS011;42934;54.294;18.598;2023-03-01T01:59:48;24.23;;;9.75;;
57047;SDS011;42934;54.294;18.598;2023-03-01T02:02:20;26.77;;;10.25;;
57047;SDS011;42934;54.294;18.598;2023-03-01T02:04:52;20.58;;;8.55;;
57047;SDS011;42934;54.294;18.598;2023-03-01T02:07:30;23.80;;;8.60;;
57047;SDS011;42934;54.294;18.598;2023-03-01T02:10:01;29.20;;;10.50;;
57047;SDS011;42934;54.294;18.598;2023-03-01T02:12:31;27.95;;;11.50;;
57047;SDS011;42934;54.294;18.598;2023-03-01T02:15:02;21.55;;;10.02;;
57047;SDS011;42934;54.294;18.598;2023-03-01T02:20:04;31.65;;;13.23;;
57047;SDS011;42934;54.294;18.598;2023-03-01T02:22:45;19.00;;;8.77;;
57047;SDS011;42934;54.294;18.598;2023-03-01T02:25:25;30.55;;;11.93;;
57047;SDS011;42934;54.294;18.598;2023-03-01T02:28:04;17.48;;;8.15;;
57047;SDS011;42934;54.294;18.598;2023-03-01T02:30:45;32.45;;;13.52;;
57047;SDS011;42934;54.294;18.598;2023-03-01T02:33:31;53.92;;;20.13;;
57047;SDS011;42934;54.294;18.598;2023-03-01T02:36:05;29.10;;;11.93;;
57047;SDS011;42934;54.294;18.598;2023-03-01T02:38:38;19.52;;;8.65;;
57047;SDS011;42934;54.294;18.598;2023-03-01T02:41:08;26.50;;;10.27;;
57047;SDS011;42934;54.294;18.598;2023-03-01T02:43:41;21.45;;;9.57;;
57047;SDS011;42934;54.294;18.598;2023-03-01T02:46:15;18.52;;;8.13;;
57047;SDS011;42934;54.294;18.598;2023-03-01T02:48:47;45.03;;;16.88;;
57047;SDS011;42934;54.294;18.598;2023-03-01T02:51:21;20.98;;;9.73;;
57047;SDS011;42934;54.294;18.598;2023-03-01T02:53:58;31.20;;;13.30;;
57047;SDS011;42934;54.294;18.598;2023-03-01T02:56:36;26.00;;;11.20;;
57047;SDS011;42934;54.294;18.598;2023-03-01T02:59:05;29.52;;;11.93;;
57047;SDS011;42934;54.294;18.598;2023-03-01T03:01:38;41.20;;;15.93;;
57047;SDS011;42934;54.294;18.598;2023-03-01T03:04:09;22.90;;;10.32;;
57047;SDS011;42934;54.294;18.598;2023-03-01T03:06:47;32.35;;;13.15;;
57047;SDS011;42934;54.294;18.598;2023-03-01T03:09:17;35.92;;;14.32;;
57047;SDS011;42934;54.294;18.598;2023-03-01T03:11:47;27.30;;;12.10;;
57047;SDS011;42934;54.294;18.598;2023-03-01T03:14:16;34.03;;;12.98;;
57047;SDS011;42934;54.294;18.598;2023-03-01T03:16:49;31.63;;;12.10;;
57047;SDS011;42934;54.294;18.598;2023-03-01T03:19:19;20.77;;;9.48;;
57047;SDS011;42934;54.294;18.598;2023-03-01T03:21:49;42.22;;;15.60;;
57047;SDS011;42934;54.294;18.598;2023-03-01T03:24:18;30.67;;;13.15;;
57047;SDS011;42934;54.294;18.598;2023-03-01T03:26:48;20.50;;;9.32;;
57047;SDS011;42934;54.294;18.598;2023-03-01T03:29:17;28.60;;;11.75;;
57047;SDS011;42934;54.294;18.598;2023-03-01T03:31:46;28.20;;;11.90;;
57047;SDS011;42934;54.294;18.598;2023-03-01T03:34:17;23.10;;;10.75;;
57047;SDS011;42934;54.294;18.598;2023-03-01T03:36:46;23.63;;;11.13;;
57047;SDS011;42934;54.294;18.598;2023-03-01T03:39:16;41.97;;;16.42;;
57047;SDS011;42934;54.294;18.598;2023-03-01T03:41:46;19.88;;;9.57;;
57047;SDS011;42934;54.294;18.598;2023-03-01T03:44:15;27.50;;;12.55;;
57047;SDS011;42934;54.294;18.598;2023-03-01T03:46:45;25.73;;;10.00;;
57047;SDS011;42934;54.294;18.598;2023-03-01T03:49:16;23.70;;;10.43;;
57047;SDS011;42934;54.294;18.598;2023-03-01T03:51:45;23.65;;;12.00;;
57047;SDS011;42934;54.294;18.598;2023-03-01T03:54:14;31.95;;;12.38;;
57047;SDS011;42934;54.294;18.598;2023-03-01T03:56:44;31.65;;;12.02;;
57047;SDS011;42934;54.294;18.598;2023-03-01T03:59:13;25.05;;;11.23;;
57047;SDS011;42934;54.294;18.598;2023-03-01T04:01:42;20.17;;;10.30;;
57047;SDS011;42934;54.294;18.598;2023-03-01T04:04:12;26.15;;;12.27;;
57047;SDS011;42934;54.294;18.598;2023-03-01T04:06:46;38.50;;;14.65;;
57047;SDS011;42934;54.294;18.598;2023-03-01T04:09:15;26.92;;;11.55;;
57047;SDS011;42934;54.294;18.598;2023-03-01T04:11:45;21.13;;;10.57;;
57047;SDS011;42934;54.294;18.598;2023-03-01T04:14:14;27.52;;;11.38;;
57047;SDS011;42934;54.294;18.598;2023-03-01T04:16:43;23.60;;;10.50;;
57047;SDS011;42934;54.294;18.598;2023-03-01T04:19:13;30.75;;;12.95;;
57047;SDS011;42934;54.294;18.598;2023-03-01T04:21:42;27.00;;;11.57;;
57047;SDS011;42934;54.294;18.598;2023-03-01T04:24:13;27.02;;;12.23;;
57047;SDS011;42934;54.294;18.598;2023-03-01T04:26:43;20.83;;;10.00;;
57047;SDS011;42934;54.294;18.598;2023-03-01T04:29:12;27.70;;;12.68;;
57047;SDS011;42934;54.294;18.598;2023-03-01T04:31:42;29.08;;;11.25;;
57047;SDS011;42934;54.294;18.598;2023-03-01T04:34:11;27.38;;;11.88;;
57047;SDS011;42934;54.294;18.598;2023-03-01T04:36:41;24.50;;;11.18;;
57047;SDS011;42934;54.294;18.598;2023-03-01T04:39:10;24.88;;;11.82;;
57047;SDS011;42934;54.294;18.598;2023-03-01T04:41:41;24.50;;;10.63;;
57047;SDS011;42934;54.294;18.598;2023-03-01T04:44:10;29.95;;;12.32;;
57047;SDS011;42934;54.294;18.598;2023-03-01T04:46:40;26.27;;;11.47;;
57047;SDS011;42934;54.294;18.598;2023-03-01T04:49:09;27.73;;;11.38;;
57047;SDS011;42934;54.294;18.598;2023-03-01T04:51:38;40.70;;;14.97;;
57047;SDS011;42934;54.294;18.598;2023-03-01T04:54:08;26.17;;;11.77;;
57047;SDS011;42934;54.294;18.598;2023-03-01T04:56:39;21.23;;;9.90;;
57047;SDS011;42934;54.294;18.598;2023-03-01T04:59:08;24.08;;;11.05;;
57047;SDS011;42934;54.294;18.598;2023-03-01T05:01:39;26.10;;;11.40;;
57047;SDS011;42934;54.294;18.598;2023-03-01T05:04:09;28.10;;;11.77;;
57047;SDS011;42934;54.294;18.598;2023-03-01T05:06:40;25.10;;;10.57;;
57047;SDS011;42934;54.294;18.598;2023-03-01T05:09:09;32.20;;;12.27;;
57047;SDS011;42934;54.294;18.598;2023-03-01T05:11:40;26.92;;;11.60;;
57047;SDS011;42934;54.294;18.598;2023-03-01T05:14:10;22.30;;;10.45;;
57047;SDS011;42934;54.294;18.598;2023-03-01T05:16:40;24.38;;;10.63;;
57047;SDS011;42934;54.294;18.598;2023-03-01T05:19:09;26.93;;;11.57;;
57047;SDS011;42934;54.294;18.598;2023-03-01T05:21:42;24.42;;;9.85;;
57047;SDS011;42934;54.294;18.598;2023-03-01T05:24:31;28.45;;;11.73;;
57047;SDS011;42934;54.294;18.598;2023-03-01T05:27:03;24.60;;;10.98;;
57047;SDS011;42934;54.294;18.598;2023-03-01T05:29:32;37.17;;;13.70;;
57047;SDS011;42934;54.294;18.598;2023-03-01T05:32:02;38.97;;;14.68;;
57047;SDS011;42934;54.294;18.598;2023-03-01T05:34:33;26.20;;;10.88;;
57047;SDS011;42934;54.294;18.598;2023-03-01T05:37:03;24.35;;;10.93;;
57047;SDS011;42934;54.294;18.598;2023-03-01T05:39:34;26.00;;;11.45;;
57047;SDS011;42934;54.294;18.598;2023-03-01T05:42:05;27.88;;;11.70;;
57047;SDS011;42934;54.294;18.598;2023-03-01T05:44:38;27.38;;;10.88;;
57047;SDS011;42934;54.294;18.598;2023-03-01T05:47:07;32.08;;;13.00;;
57047;SDS011;42934;54.294;18.598;2023-03-01T05:49:36;26.95;;;10.80;;
57047;SDS011;42934;54.294;18.598;2023-03-01T05:52:06;34.45;;;13.07;;
57047;SDS011;42934;54.294;18.598;2023-03-01T05:54:35;26.97;;;11.97;;
57047;SDS011;42934;54.294;18.598;2023-03-01T05:57:07;24.73;;;10.93;;
57047;SDS011;42934;54.294;18.598;2023-03-01T05:59:37;31.58;;;12.40;;
57047;SDS011;42934;54.294;18.598;2023-03-01T06:02:06;28.30;;;10.90;;
57047;SDS011;42934;54.294;18.598;2023-03-01T06:04:35;25.05;;;12.07;;
57047;SDS011;42934;54.294;18.598;2023-03-01T06:07:05;30.40;;;13.50;;
57047;SDS011;42934;54.294;18.598;2023-03-01T06:09:34;31.95;;;12.55;;
57047;SDS011;42934;54.294;18.598;2023-03-01T06:12:04;149.97;;;43.03;;
57047;SDS011;42934;54.294;18.598;2023-03-01T06:14:34;59.75;;;21.10;;
57047;SDS011;42934;54.294;18.598;2023-03-01T06:17:04;58.85;;;21.67;;
57047;SDS011;42934;54.294;18.598;2023-03-01T06:19:33;52.30;;;19.70;;
57047;SDS011;42934;54.294;18.598;2023-03-01T06:22:03;49.42;;;20.45;;
57047;SDS011;42934;54.294;18.598;2023-03-01T06:24:32;140.20;;;39.90;;
57047;SDS011;42934;54.294;18.598;2023-03-01T06:27:02;46.35;;;19.25;;
57047;SDS011;42934;54.294;18.598;2023-03-01T06:29:33;47.95;;;19.42;;
57047;SDS011;42934;54.294;18.598;2023-03-01T06:32:02;39.25;;;16.20;;
57047;SDS011;42934;54.294;18.598;2023-03-01T06:34:31;31.43;;;13.43;;
57047;SDS011;42934;54.294;18.598;2023-03-01T06:37:01;31.77;;;13.80;;
57047;SDS011;42934;54.294;18.598;2023-03-01T06:39:32;48.67;;;18.65;;
57047;SDS011;42934;54.294;18.598;2023-03-01T06:42:02;47.22;;;19.20;;
57047;SDS011;42934;54.294;18.598;2023-03-01T06:44:32;59.83;;;23.57;;
57047;SDS011;42934;54.294;18.598;2023-03-01T06:47:02;101.55;;;34.15;;
57047;SDS011;42934;54.294;18.598;2023-03-01T06:49:31;68.90;;;24.13;;
57047;SDS011;42934;54.294;18.598;2023-03-01T06:52:01;67.75;;;23.77;;
57047;SDS011;42934;54.294;18.598;2023-03-01T06:54:30;39.73;;;16.20;;
57047;SDS011;42934;54.294;18.598;2023-03-01T06:57:00;79.83;;;27.40;;
57047;SDS011;42934;54.294;18.598;2023-03-01T06:59:29;32.80;;;13.75;;
57047;SDS011;42934;54.294;18.598;2023-03-01T07:02:00;50.80;;;18.13;;
57047;SDS011;42934;54.294;18.598;2023-03-01T07:04:29;49.42;;;18.80;;
57047;SDS011;42934;54.294;18.598;2023-03-01T07:06:59;53.90;;;21.63;;
57047;SDS011;42934;54.294;18.598;2023-03-01T07:09:28;74.13;;;27.65;;
57047;SDS011;42934;54.294;18.598;2023-03-01T07:11:58;79.15;;;27.45;;
57047;SDS011;42934;54.294;18.598;2023-03-01T07:14:28;114.10;;;37.37;;
57047;SDS011;42934;54.294;18.598;2023-03-01T07:16:57;39.92;;;16.52;;
57047;SDS011;42934;54.294;18.598;2023-03-01T07:19:28;56.95;;;21.40;;
57047;SDS011;42934;54.294;18.598;2023-03-01T07:21:57;88.90;;;32.42;;
57047;SDS011;42934;54.294;18.598;2023-03-01T07:24:26;64.70;;;25.98;;
57047;SDS011;42934;54.294;18.598;2023-03-01T07:26:56;42.28;;;16.42;;
57047;SDS011;42934;54.294;18.598;2023-03-01T07:29:25;71.43;;;26.60;;
57047;SDS011;42934;54.294;18.598;2023-03-01T07:31:55;52.25;;;25.02;;
57047;SDS011;42934;54.294;18.598;2023-03-01T07:34:25;41.05;;;19.80;;
57047;SDS011;42934;54.294;18.598;2023-03-01T07:36:56;41.13;;;18.35;;
57047;SDS011;42934;54.294;18.598;2023-03-01T07:39:25;33.10;;;16.40;;
57047;SDS011;42934;54.294;18.598;2023-03-01T07:41:55;43.30;;;17.88;;
57047;SDS011;42934;54.294;18.598;2023-03-01T07:44:24;90.85;;;30.98;;
57047;SDS011;42934;54.294;18.598;2023-03-01T07:46:55;57.08;;;21.75;;
57047;SDS011;42934;54.294;18.598;2023-03-01T07:49:24;58.80;;;22.15;;
57047;SDS011;42934;54.294;18.598;2023-03-01T07:51:55;76.43;;;28.63;;
57047;SDS011;42934;54.294;18.598;2023-03-01T07:54:25;39.83;;;16.80;;
57047;SDS011;42934;54.294;18.598;2023-03-01T07:56:55;69.68;;;29.88;;
57047;SDS011;42934;54.294;18.598;2023-03-01T07:59:25;40.38;;;16.60;;
57047;SDS011;42934;54.294;18.598;2023-03-01T08:01:56;65.43;;;24.83;;
57047;SDS011;42934;54.294;18.598;2023-03-01T08:04:25;46.90;;;17.70;;
57047;SDS011;42934;54.294;18.598;2023-03-01T08:06:56;34.72;;;13.73;;
57047;SDS011;42934;54.294;18.598;2023-03-01T08:09:26;87.05;;;30.20;;
57047;SDS011;42934;54.294;18.598;2023-03-01T08:11:56;82.97;;;29.25;;
57047;SDS011;42934;54.294;18.598;2023-03-01T08:14:26;61.55;;;24.65;;
57047;SDS011;42934;54.294;18.598;2023-03-01T08:16:56;30.92;;;13.20;;
57047;SDS011;42934;54.294;18.598;2023-03-01T08:19:25;31.40;;;13.00;;
57047;SDS011;42934;54.294;18.598;2023-03-01T08:21:56;27.60;;;12.27;;
57047;SDS011;42934;54.294;18.598;2023-03-01T08:24:26;34.35;;;13.40;;
57047;SDS011;42934;54.294;18.598;2023-03-01T08:26:56;46.42;;;18.92;;
57047;SDS011;42934;54.294;18.598;2023-03-01T08:29:25;40.50;;;15.68;;
57047;SDS011;42934;54.294;18.598;2023-03-01T08:31:55;43.33;;;15.77;;
57047;SDS011;42934;54.294;18.598;2023-03-01T08:34:24;38.30;;;15.25;;
57047;SDS011;42934;54.294;18.598;2023-03-01T08:36:54;29.92;;;12.05;;
57047;SDS011;42934;54.294;18.598;2023-03-01T08:39:24;37.22;;;14.35;;
57047;SDS011;42934;54.294;18.598;2023-03-01T08:41:54;56.40;;;19.40;;
57047;SDS011;42934;54.294;18.598;2023-03-01T08:44:23;43.93;;;15.83;;
57047;SDS011;42934;54.294;18.598;2023-03-01T08:46:53;21.75;;;10.52;;
57047;SDS011;42934;54.294;18.598;2023-03-01T08:49:22;32.60;;;13.20;;
57047;SDS011;42934;54.294;18.598;2023-03-01T08:51:52;27.35;;;11.25;;
57047;SDS011;42934;54.294;18.598;2023-03-01T08:54:22;46.67;;;18.38;;
57047;SDS011;42934;54.294;18.598;2023-03-01T08:56:52;28.23;;;12.40;;
57047;SDS011;42934;54.294;18.598;2023-03-01T08:59:21;28.90;;;13.15;;
57047;SDS011;42934;54.294;18.598;2023-03-01T09:01:50;34.57;;;14.27;;
57047;SDS011;42934;54.294;18.598;2023-03-01T09:04:19;17.13;;;8.70;;
57047;SDS011;42934;54.294;18.598;2023-03-01T09:06:49;18.42;;;9.20;;
57047;SDS011;42934;54.294;18.598;2023-03-01T09:09:18;34.22;;;15.68;;
57047;SDS011;42934;54.294;18.598;2023-03-01T09:11:49;21.10;;;8.77;;
57047;SDS011;42934;54.294;18.598;2023-03-01T09:14:18;21.20;;;10.57;;
57047;SDS011;42934;54.294;18.598;2023-03-01T09:16:48;24.53;;;9.53;;
57047;SDS011;42934;54.294;18.598;2023-03-01T09:19:17;16.65;;;9.15;;
57047;SDS011;42934;54.294;18.598;2023-03-01T09:21:46;17.77;;;9.00;;
57047;SDS011;42934;54.294;18.598;2023-03-01T09:24:20;34.30;;;16.42;;
57047;SDS011;42934;54.294;18.598;2023-03-01T09:26:54;39.97;;;19.05;;
57047;SDS011;42934;54.294;18.598;2023-03-01T09:29:23;18.77;;;9.50;;
57047;SDS011;42934;54.294;18.598;2023-03-01T09:31:53;20.42;;;10.60;;
57047;SDS011;42934;54.294;18.598;2023-03-01T09:34:23;19.05;;;9.32;;
57047;SDS011;42934;54.294;18.598;2023-03-01T09:36:52;24.60;;;12.87;;
57047;SDS011;42934;54.294;18.598;2023-03-01T09:39:21;19.00;;;9.55;;
57047;SDS011;42934;54.294;18.598;2023-03-01T09:41:56;24.50;;;13.00;;
57047;SDS011;42934;54.294;18.598;2023-03-01T09:44:32;24.10;;;12.60;;
57047;SDS011;42934;54.294;18.598;2023-03-01T09:47:08;17.88;;;8.60;;
57047;SDS011;42934;54.294;18.598;2023-03-01T09:49:44;29.52;;;15.65;;
57047;SDS011;42934;54.294;18.598;2023-03-01T09:52:26;18.50;;;9.45;;
57047;SDS011;42934;54.294;18.598;2023-03-01T09:55:05;17.05;;;9.10;;
57047;SDS011;42934;54.294;18.598;2023-03-01T09:57:43;18.55;;;8.82;;
57047;SDS011;42934;54.294;18.598;2023-03-01T10:00:19;17.80;;;8.43;;
57047;SDS011;42934;54.294;18.598;2023-03-01T10:02:59;16.13;;;8.48;;
57047;SDS011;42934;54.294;18.598;2023-03-01T10:05:39;16.38;;;8.40;;
57047;SDS011;42934;54.294;18.598;2023-03-01T10:08:25;15.02;;;8.30;;
57047;SDS011;42934;54.294;18.598;2023-03-01T10:11:00;15.27;;;8.43;;
57047;SDS011;42934;54.294;18.598;2023-03-01T10:13:34;14.30;;;7.10;;
57047;SDS011;42934;54.294;18.598;2023-03-01T10:16:13;11.63;;;7.13;;
57047;SDS011;42934;54.294;18.598;2023-03-01T10:18:50;12.27;;;7.32;;
57047;SDS011;42934;54.294;18.598;2023-03-01T10:21:23;13.23;;;7.20;;
57047;SDS011;42934;54.294;18.598;2023-03-01T10:23:55;15.27;;;8.18;;
57047;SDS011;42934;54.294;18.598;2023-03-01T10:26:37;15.07;;;8.10;;
57047;SDS011;42934;54.294;18.598;2023-03-01T10:29:14;17.92;;;8.07;;
57047;SDS011;42934;54.294;18.598;2023-03-01T10:31:44;14.50;;;8.05;;
57047;SDS011;42934;54.294;18.598;2023-03-01T10:34:17;23.48;;;9.30;;
57047;SDS011;42934;54.294;18.598;2023-03-01T10:36:50;16.50;;;8.82;;
57047;SDS011;42934;54.294;18.598;2023-03-01T10:39:25;13.48;;;7.57;;
57047;SDS011;42934;54.294;18.598;2023-03-01T10:41:55;15.63;;;8.07;;
57047;SDS011;42934;54.294;18.598;2023-03-01T10:47:18;16.25;;;8.63;;
57047;SDS011;42934;54.294;18.598;2023-03-01T10:49:56;15.77;;;8.27;;
57047;SDS011;42934;54.294;18.598;2023-03-01T10:52:28;14.70;;;9.55;;
57047;SDS011;42934;54.294;18.598;2023-03-01T10:55:01;15.13;;;9.20;;
57047;SDS011;42934;54.294;18.598;2023-03-01T10:57:52;14.82;;;8.52;;
57047;SDS011;42934;54.294;18.598;2023-03-01T11:00:46;17.17;;;8.68;;
57047;SDS011;42934;54.294;18.598;2023-03-01T11:03:19;13.82;;;8.02;;
57047;SDS011;42934;54.294;18.598;2023-03-01T11:05:58;16.20;;;8.48;;
57047;SDS011;42934;54.294;18.598;2023-03-01T11:08:34;13.75;;;7.90;;
57047;SDS011;42934;54.294;18.598;2023-03-01T11:11:20;14.43;;;7.72;;
57047;SDS011;42934;54.294;18.598;2023-03-01T11:13:53;13.23;;;8.48;;
57047;SDS011;42934;54.294;18.598;2023-03-01T11:16:30;14.15;;;8.27;;
57047;SDS011;42934;54.294;18.598;2023-03-01T11:19:16;17.45;;;9.10;;
57047;SDS011;42934;54.294;18.598;2023-03-01T11:21:50;12.07;;;8.07;;
57047;SDS011;42934;54.294;18.598;2023-03-01T11:24:27;14.30;;;9.27;;
57047;SDS011;42934;54.294;18.598;2023-03-01T11:27:35;13.45;;;8.38;;
57047;SDS011;42934;54.294;18.598;2023-03-01T11:30:13;14.48;;;9.05;;
57047;SDS011;42934;54.294;18.598;2023-03-01T11:32:50;12.73;;;8.00;;
57047;SDS011;42934;54.294;18.598;2023-03-01T11:35:32;13.40;;;8.60;;
57047;SDS011;42934;54.294;18.598;2023-03-01T11:38:09;13.25;;;8.90;;
57047;SDS011;42934;54.294;18.598;2023-03-01T11:40:49;12.68;;;8.20;;
57047;SDS011;42934;54.294;18.598;2023-03-01T11:43:27;14.35;;;7.88;;
57047;SDS011;42934;54.294;18.598;2023-03-01T11:52:14;15.90;;;8.82;;
57047;SDS011;42934;54.294;18.598;2023-03-01T11:54:56;12.68;;;8.60;;
57047;SDS011;42934;54.294;18.598;2023-03-01T11:57:45;12.25;;;8.40;;
57047;SDS011;42934;54.294;18.598;2023-03-01T12:00:34;13.80;;;7.80;;
57047;SDS011;42934;54.294;18.598;2023-03-01T12:03:22;11.05;;;7.82;;
57047;SDS011;42934;54.294;18.598;2023-03-01T12:09:07;13.25;;;8.48;;
57047;SDS011;42934;54.294;18.598;2023-03-01T12:12:03;12.52;;;8.30;;
57047;SDS011;42934;54.294;18.598;2023-03-01T12:15:17;12.73;;;8.52;;
57047;SDS011;42934;54.294;18.598;2023-03-01T12:18:13;13.40;;;8.65;;
57047;SDS011;42934;54.294;18.598;2023-03-01T12:21:05;14.15;;;8.85;;
57047;SDS011;42934;54.294;18.598;2023-03-01T12:23:58;14.48;;;9.38;;
57047;SDS011;42934;54.294;18.598;2023-03-01T12:26:59;12.70;;;8.90;;
57047;SDS011;42934;54.294;18.598;2023-03-01T12:29:47;13.65;;;8.30;;
57047;SDS011;42934;54.294;18.598;2023-03-01T12:32:30;13.05;;;8.50;;
57047;SDS011;42934;54.294;18.598;2023-03-01T12:35:36;18.63;;;9.30;;
57047;SDS011;42934;54.294;18.598;2023-03-01T12:38:25;15.60;;;8.93;;
57047;SDS011;42934;54.294;18.598;2023-03-01T12:41:09;14.65;;;9.60;;
57047;SDS011;42934;54.294;18.598;2023-03-01T12:43:58;16.58;;;9.57;;
57047;SDS011;42934;54.294;18.598;2023-03-01T12:46:44;16.08;;;9.65;;
57047;SDS011;42934;54.294;18.598;2023-03-01T12:49:21;13.57;;;9.85;;
57047;SDS011;42934;54.294;18.598;2023-03-01T12:51:54;17.20;;;10.85;;
57047;SDS011;42934;54.294;18.598;2023-03-01T12:54:28;14.90;;;10.15;;
57047;SDS011;42934;54.294;18.598;2023-03-01T12:57:02;17.70;;;10.00;;
57047;SDS011;42934;54.294;18.598;2023-03-01T12:59:38;17.35;;;10.25;;
57047;SDS011;42934;54.294;18.598;2023-03-01T13:02:14;18.60;;;11.15;;
57047;SDS011;42934;54.294;18.598;2023-03-01T13:04:53;16.50;;;10.30;;
57047;SDS011;42934;54.294;18.598;2023-03-01T13:07:36;17.92;;;11.48;;
57047;SDS011;42934;54.294;18.598;2023-03-01T13:10:16;20.75;;;11.38;;
57047;SDS011;42934;54.294;18.598;2023-03-01T13:13:00;18.70;;;10.50;;
57047;SDS011;42934;54.294;18.598;2023-03-01T13:15:46;22.20;;;12.05;;
57047;SDS011;42934;54.294;18.598;2023-03-01T13:18:30;25.20;;;13.10;;
57047;SDS011;42934;54.294;18.598;2023-03-01T13:21:02;17.08;;;10.32;;
57047;SDS011;42934;54.294;18.598;2023-03-01T13:23:33;17.33;;;10.15;;
57047;SDS011;42934;54.294;18.598;2023-03-01T13:26:12;17.88;;;11.30;;
57047;SDS011;42934;54.294;18.598;2023-03-01T13:28:48;20.65;;;12.60;;
57047;SDS011;42934;54.294;18.598;2023-03-01T13:34:49;18.20;;;10.60;;
57047;SDS011;42934;54.294;18.598;2023-03-01T13:37:22;14.10;;;9.02;;
57047;SDS011;42934;54.294;18.598;2023-03-01T13:39:57;16.45;;;10.13;;
57047;SDS011;42934;54.294;18.598;2023-03-01T13:42:35;16.10;;;10.77;;
57047;SDS011;42934;54.294;18.598;2023-03-01T13:45:16;18.38;;;10.65;;
57047;SDS011;42934;54.294;18.598;2023-03-01T13:47:55;18.63;;;10.48;;
57047;SDS011;42934;54.294;18.598;2023-03-01T13:50:29;34.03;;;16.55;;
57047;SDS011;42934;54.294;18.598;2023-03-01T13:53:06;28.10;;;14.00;;
57047;SDS011;42934;54.294;18.598;2023-03-01T13:55:41;42.92;;;24.52;;
57047;SDS011;42934;54.294;18.598;2023-03-01T13:58:17;58.97;;;24.73;;
57047;SDS011;42934;54.294;18.598;2023-03-01T14:00:58;57.97;;;28.88;;
57047;SDS011;42934;54.294;18.598;2023-03-01T14:03:29;43.55;;;21.38;;
57047;SDS011;42934;54.294;18.598;2023-03-01T14:06:04;61.85;;;30.40;;
57047;SDS011;42934;54.294;18.598;2023-03-01T14:08:46;55.80;;;21.55;;
57047;SDS011;42934;54.294;18.598;2023-03-01T14:14:25;31.88;;;16.67;;
57047;SDS011;42934;54.294;18.598;2023-03-01T14:17:44;26.45;;;12.63;;
57047;SDS011;42934;54.294;18.598;2023-03-01T14:20:23;30.77;;;14.13;;
57047;SDS011;42934;54.294;18.598;2023-03-01T14:22:56;55.60;;;23.85;;
57047;SDS011;42934;54.294;18.598;2023-03-01T14:25:28;67.28;;;24.33;;
57047;SDS011;42934;54.294;18.598;2023-03-01T14:28:01;69.47;;;29.35;;
57047;SDS011;42934;54.294;18.598;2023-03-01T14:30:34;70.07;;;30.33;;
57047;SDS011;42934;54.294;18.598;2023-03-01T14:33:17;54.85;;;25.17;;
57047;SDS011;42934;54.294;18.598;2023-03-01T14:35:54;82.47;;;39.28;;
57047;SDS011;42934;54.294;18.598;2023-03-01T14:38:31;69.88;;;31.13;;
57047;SDS011;42934;54.294;18.598;2023-03-01T14:41:03;46.67;;;18.52;;
57047;SDS011;42934;54.294;18.598;2023-03-01T14:43:36;41.28;;;16.98;;
57047;SDS011;42934;54.294;18.598;2023-03-01T14:46:16;92.63;;;31.73;;
57047;SDS011;42934;54.294;18.598;2023-03-01T14:48:50;131.20;;;41.47;;
57047;SDS011;42934;54.294;18.598;2023-03-01T14:51:22;58.50;;;23.63;;
57047;SDS011;42934;54.294;18.598;2023-03-01T14:53:54;106.05;;;41.85;;
57047;SDS011;42934;54.294;18.598;2023-03-01T14:56:26;21.58;;;11.80;;
57047;SDS011;42934;54.294;18.598;2023-03-01T14:59:11;24.48;;;12.05;;
57047;SDS011;42934;54.294;18.598;2023-03-01T15:01:42;26.27;;;12.93;;
57047;SDS011;42934;54.294;18.598;2023-03-01T15:06:43;38.80;;;19.48;;
57047;SDS011;42934;54.294;18.598;2023-03-01T15:09:14;40.55;;;19.10;;
57047;SDS011;42934;54.294;18.598;2023-03-01T15:11:44;43.45;;;20.48;;
57047;SDS011;42934;54.294;18.598;2023-03-01T15:14:38;31.00;;;15.13;;
57047;SDS011;42934;54.294;18.598;2023-03-01T15:17:22;32.25;;;14.18;;